Terminal Aerodrome Forecast
Issued by NWS

Home | Current Version | Previous Version | Text Only | Print | Product List | Glossary On
Versions: 1 2 3 4 5 6 7 8 9 10 11 12
794
FTUS45 KRIW 191720
TAFRKS
TAF
KRKS 191720Z 1918/2018 21011KT P6SM VCSH BKN050
     FM192100 25012KT 3SM -RASN BKN025
     FM192300 26012KT 2SM -SN BKN016
     FM200100 26011KT P6SM SCT025 BKN050
     FM201700 20011KT P6SM BKN080=

USA.gov is the U.S. government's official web portal to all federal, state and local government web resources and services.